Overview Statistics Trail Chart Weather Telemetry Raw packets
 

This is the latest recevied weather packets stored in our database for station/object WE1C. If no packets are shown the sender has not sent any weather packets the latest 10 day(s).

<< 110 111 112 113 114 >>
Time Temp. Humidity Pressure Rain* Wind** Luminosity Snow
1787775686 24.44° C 64% 1046 hPa 0 mm - 62 W/m² -
1787775385 24.44° C 66% 1045.9 hPa 0 mm - 66 W/m² -
1787775079 24.44° C 65% 1046 hPa 0 mm - 65 W/m² -
1787774778 24.44° C 64% 1046.2 hPa 0 mm - 78 W/m² -
1787774473 25° C 66% 1046.2 hPa 0 mm - 82 W/m² -
1787774172 25° C 67% 1045.9 hPa 0 mm - 115 W/m² -
1787773871 25° C 66% 1046 hPa 0 mm - 258 W/m² -
1787773570 26.11° C 62% 1046.1 hPa 0 mm - 73 W/m² -
1787773267 26.11° C 60% 1046.1 hPa 0 mm - 123 W/m² -
1787772961 26.11° C 60% 1046.2 hPa 0 mm - 593 W/m² -
1787772657 26.67° C 61% 1046.2 hPa 0 mm - 593 W/m² -
1787772355 26.67° C 60% 1046.3 hPa 0 mm - 632 W/m² -
1787772055 26.11° C 61% 1046.1 hPa 0 mm - 620 W/m² -
1787771754 25.56° C 63% 1046.1 hPa 0 mm - 621 W/m² -
1787771454 25.56° C 65% 1046.4 hPa 0 mm - 143 W/m² -
1787771153 26.11° C 63% 1046.4 hPa 0 mm - 206 W/m² -
1787770849 26.11° C 63% 1046.4 hPa 0 mm - 658 W/m² -
1787770547 25.56° C 63% 1046.6 hPa 0 mm - 637 W/m² -
1787770247 25° C 67% 1046.3 hPa 0 mm - 509 W/m² -
1787769945 25.56° C 67% 1046.4 hPa 0 mm - 494 W/m² -
1787769641 25.56° C 62% 1046.5 hPa 0 mm - 562 W/m² -
1787769338 25.56° C 63% 1046.5 hPa 0 mm - 755 W/m² -
1787769034 24.44° C 67% 1046.6 hPa 0 mm - 785 W/m² -
1787768729 24.44° C 65% 1046.6 hPa 0 mm - 147 W/m² -
1787768426 23.89° C 69% 1046.7 hPa 0 mm - 547 W/m² -

* Rain latest hour (hover to see other rain measurements)
** Current wind speed in m/s (hover to see current wind gust speed)